Flight Track Log - Related Links

Times and Time Zones

All times are in EDT time to prevent confusion due to time zone crossing. See the BBA22 flight status page for this flight to view local times or setup timezone preferences in your user account.

Time Position Orientation Groundspeed Altitude Reporting Facility
EDT Latitude Longitude Course Direction KTS MPH feet Rate Location/Type
Mon 11:27:15 PM 46.3049 -79.4238 73° East  Level FlightAware Approximate
Mon 11:28:15 PM 46.1582 -79.4264 15° North  Level FlightAware Approximate
Mon 11:29:25 PM 46.3167 -79.3667 180° South 180 207 6,000  Level Toronto Center
Mon 11:30:25 PM 46.2500 -79.3667 170° South 240 276 7,800 2,200 Climbing Toronto Center
Mon 11:31:25 PM 46.1833 -79.3500 180° South 260 299 10,400 2,300 Climbing Toronto Center
Mon 11:32:25 PM 46.1000 -79.3500 180° South 280 322 12,400 2,100 Climbing Toronto Center
Mon 11:33:25 PM 46.0167 -79.3500 164° South 290 334 14,600 2,050 Climbing Toronto Center
Mon 11:34:25 PM 45.9333 -79.3167 180° South 290 334 16,500 1,700 Climbing Toronto Center
Mon 11:35:25 PM 45.8667 -79.3167 180° South 290 334 18,000 750 Climbing Toronto Center
Mon 11:36:25 PM 45.7667 -79.3167 173° South 320 368 18,000  Level Toronto Center
Mon 11:37:25 PM 45.6667 -79.3000 180° South 350 403 18,000  Level Toronto Center
Mon 11:38:25 PM 45.5667 -79.3000 180° South 360 414 18,000  Level Toronto Center
Mon 11:39:25 PM 45.4667 -79.3000 184° South 360 414 18,000  Level Toronto Center
Mon 11:47:15 PM 44.1732 -79.4170 227° Southwest  Level FlightAware Approximate
Mon 11:48:15 PM 44.0557 -79.5943 220° Southwest  Level FlightAware Approximate
Mon 11:49:15 PM 43.9345 -79.7345 134° Southeast  Level FlightAware Approximate
Mon 11:50:15 PM 43.8185 -79.5685 135° Southeast  Level FlightAware Approximate
Mon 11:51:15 PM 43.7333 -79.4500 309° West  Level FlightAware Approximate
Mon 11:52:15 PM 43.8433 -79.6371 14° North  Level Estimated
Mon 11:53:15 PM 44.9045 -79.2525 190° South  Level FlightAware Approximate
Mon 11:54:15 PM 44.7328 -79.2936 190° South  Level FlightAware Approximate
Mon 11:55:15 PM 44.5611 -79.3345 190° South  Level FlightAware Approximate
Mon 11:56:15 PM 44.3894 -79.3752 190° South  Level FlightAware Approximate
Mon 11:57:15 PM 44.2176 -79.4156 190° South  Level FlightAware Approximate
Mon 11:58:15 PM 44.0459 -79.4557 190° South  Level FlightAware Approximate
Mon 11:59:15 PM 43.8741 -79.4957 167° South  Level FlightAware Approximate
Tue 12:00:15 AM 43.7333 -79.4500 309° West  Level FlightAware Approximate
Tue 12:01:15 AM 43.8433 -79.6371 129° Southeast  Level Estimated
Tue 12:02:15 AM 43.7339 -79.4508 309° West  Level FlightAware Approximate
Tue 12:03:15 AM 43.8429 -79.6390 129° Southeast  Level Estimated
Tue 12:04:15 AM 43.7333 -79.4500 309° West  Level FlightAware Approximate
Tue 12:05:15 AM 43.8433 -79.6371 129° Southeast  Level Estimated
Tue 12:06:15 AM 43.7333 -79.4500 309° West  Level FlightAware Approximate
Tue 12:07:15 AM 43.8433 -79.6371 129° Southeast  Level Estimated
Tue 12:08:15 AM 43.7333 -79.4500 309° West  Level FlightAware Approximate
Tue 12:09:15 AM 43.8433 -79.6371 129° Southeast  Level Estimated
Tue 12:10:15 AM 43.7333 -79.4500 309° West  Level FlightAware Approximate
Tue 12:11:15 AM 43.8433 -79.6371 129° Southeast  Level Estimated
Tue 12:12:15 AM 43.7333 -79.4500 309° West  Level FlightAware Approximate
Tue 12:13:15 AM 43.8433 -79.6371 129° Southeast  Level Estimated
Tue 12:14:15 AM 43.7333 -79.4500 309° West  Level FlightAware Approximate
Tue 12:15:15 AM 43.8433 -79.6371 129° Southeast  Level Estimated
Tue 12:16:15 AM 43.7333 -79.4500 309° West  Level FlightAware Approximate
Tue 12:17:15 AM 43.8433 -79.6371 129° Southeast  Level Estimated
Tue 12:18:15 AM 43.7333 -79.4500 129° Southeast  Level FlightAware Approximate

Login

Don't have an account? Register now (free) for customized features, flight alerts, and more!